sensor_id;sensor_type;location;lat;lon;timestamp;pressure;altitude;pressure_sealevel;temperature;humidity
69402;BME280;56589;51.992;5.924;2023-10-19T00:01:50;98828.75;;;9.02;91.42
69402;BME280;56589;51.992;5.924;2023-10-19T00:04:18;98818.97;;;9.04;91.10
69402;BME280;56589;51.992;5.924;2023-10-19T00:06:44;98817.72;;;9.08;91.33
69402;BME280;56589;51.992;5.924;2023-10-19T00:09:10;98825.19;;;9.13;90.82
69402;BME280;56589;51.992;5.924;2023-10-19T00:11:36;98819.50;;;9.17;92.11
69402;BME280;56589;51.992;5.924;2023-10-19T00:14:01;98816.63;;;9.20;91.14
69402;BME280;56589;51.992;5.924;2023-10-19T00:16:27;98810.16;;;9.25;91.88
69402;BME280;56589;51.992;5.924;2023-10-19T00:18:53;98799.56;;;9.26;92.26
69402;BME280;56589;51.992;5.924;2023-10-19T00:21:21;98818.31;;;9.31;91.90
69402;BME280;56589;51.992;5.924;2023-10-19T00:23:50;98812.53;;;9.37;91.50
69402;BME280;56589;51.992;5.924;2023-10-19T00:26:17;98819.69;;;9.45;91.08
69402;BME280;56589;51.992;5.924;2023-10-19T00:28:44;98807.00;;;9.50;91.17
69402;BME280;56589;51.992;5.924;2023-10-19T00:31:10;98792.78;;;9.53;91.99
69402;BME280;56589;51.992;5.924;2023-10-19T00:33:35;98803.41;;;9.51;91.89
69402;BME280;56589;51.992;5.924;2023-10-19T00:36:01;98810.97;;;9.54;92.08
69402;BME280;56589;51.992;5.924;2023-10-19T00:38:29;98805.19;;;9.60;91.72
69402;BME280;56589;51.992;5.924;2023-10-19T00:40:56;98797.72;;;9.65;91.81
69402;BME280;56589;51.992;5.924;2023-10-19T00:43:28;98793.88;;;9.69;91.37
69402;BME280;56589;51.992;5.924;2023-10-19T00:45:55;98804.06;;;9.72;91.40
69402;BME280;56589;51.992;5.924;2023-10-19T00:48:20;98799.50;;;9.74;91.60
69402;BME280;56589;51.992;5.924;2023-10-19T00:50:47;98801.00;;;9.77;92.35
69402;BME280;56589;51.992;5.924;2023-10-19T00:53:12;98795.78;;;9.77;92.22
69402;BME280;56589;51.992;5.924;2023-10-19T00:55:41;98795.47;;;9.80;92.36
69402;BME280;56589;51.992;5.924;2023-10-19T00:58:07;98790.63;;;9.85;92.23
69402;BME280;56589;51.992;5.924;2023-10-19T01:00:33;98787.91;;;9.87;92.65
69402;BME280;56589;51.992;5.924;2023-10-19T01:02:59;98808.56;;;9.90;92.70
69402;BME280;56589;51.992;5.924;2023-10-19T01:05:25;98793.38;;;9.93;92.71
69402;BME280;56589;51.992;5.924;2023-10-19T01:07:51;98807.03;;;9.97;92.54
69402;BME280;56589;51.992;5.924;2023-10-19T01:10:17;98804.25;;;9.98;91.90
69402;BME280;56589;51.992;5.924;2023-10-19T01:12:45;98804.81;;;10.02;91.95
69402;BME280;56589;51.992;5.924;2023-10-19T01:15:13;98792.38;;;10.04;91.97
69402;BME280;56589;51.992;5.924;2023-10-19T01:17:41;98792.50;;;10.02;92.69
69402;BME280;56589;51.992;5.924;2023-10-19T01:20:10;98780.22;;;10.03;92.78
69402;BME280;56589;51.992;5.924;2023-10-19T01:22:36;98780.06;;;10.04;93.06
69402;BME280;56589;51.992;5.924;2023-10-19T01:25:06;98774.00;;;10.04;92.95
69402;BME280;56589;51.992;5.924;2023-10-19T01:27:33;98779.25;;;10.04;92.88
69402;BME280;56589;51.992;5.924;2023-10-19T01:29:58;98772.09;;;10.06;92.78
69402;BME280;56589;51.992;5.924;2023-10-19T01:32:24;98769.31;;;10.08;92.87
69402;BME280;56589;51.992;5.924;2023-10-19T01:34:53;98765.72;;;10.09;92.99
69402;BME280;56589;51.992;5.924;2023-10-19T01:37:19;98767.38;;;10.10;93.02
69402;BME280;56589;51.992;5.924;2023-10-19T01:39:45;98761.16;;;10.11;92.88
69402;BME280;56589;51.992;5.924;2023-10-19T01:42:13;98758.41;;;10.12;92.74
69402;BME280;56589;51.992;5.924;2023-10-19T01:44:39;98757.13;;;10.16;92.52
69402;BME280;56589;51.992;5.924;2023-10-19T01:47:05;98755.19;;;10.18;92.83
69402;BME280;56589;51.992;5.924;2023-10-19T01:49:31;98766.34;;;10.20;92.79
69402;BME280;56589;51.992;5.924;2023-10-19T01:51:56;98764.13;;;10.25;92.44
69402;BME280;56589;51.992;5.924;2023-10-19T01:54:23;98757.91;;;10.26;92.35
69402;BME280;56589;51.992;5.924;2023-10-19T01:56:50;98760.38;;;10.28;92.52
69402;BME280;56589;51.992;5.924;2023-10-19T01:59:20;98755.00;;;10.29;93.06
69402;BME280;56589;51.992;5.924;2023-10-19T02:01:47;98747.66;;;10.33;92.52
69402;BME280;56589;51.992;5.924;2023-10-19T02:04:12;98741.31;;;10.36;92.91
69402;BME280;56589;51.992;5.924;2023-10-19T02:06:38;98747.91;;;10.40;92.52
69402;BME280;56589;51.992;5.924;2023-10-19T02:09:05;98730.06;;;10.43;92.88
69402;BME280;56589;51.992;5.924;2023-10-19T02:11:32;98740.78;;;10.50;92.36
69402;BME280;56589;51.992;5.924;2023-10-19T02:13:58;98739.53;;;10.54;92.66
69402;BME280;56589;51.992;5.924;2023-10-19T02:16:27;98735.63;;;10.58;92.50
69402;BME280;56589;51.992;5.924;2023-10-19T02:18:52;98734.53;;;10.61;92.88
69402;BME280;56589;51.992;5.924;2023-10-19T02:21:19;98739.31;;;10.65;93.23
69402;BME280;56589;51.992;5.924;2023-10-19T02:23:45;98729.88;;;10.72;93.10
69402;BME280;56589;51.992;5.924;2023-10-19T02:26:10;98734.50;;;10.78;93.12
69402;BME280;56589;51.992;5.924;2023-10-19T02:28:36;98735.59;;;10.86;92.77
69402;BME280;56589;51.992;5.924;2023-10-19T02:31:02;98723.81;;;10.90;92.98
69402;BME280;56589;51.992;5.924;2023-10-19T02:33:31;98723.38;;;10.94;92.69
69402;BME280;56589;51.992;5.924;2023-10-19T02:35:56;98721.28;;;10.98;92.81
69402;BME280;56589;51.992;5.924;2023-10-19T02:38:22;98724.25;;;11.03;93.07
69402;BME280;56589;51.992;5.924;2023-10-19T02:40:48;98721.34;;;11.06;92.62
69402;BME280;56589;51.992;5.924;2023-10-19T02:43:14;98720.19;;;11.08;92.68
69402;BME280;56589;51.992;5.924;2023-10-19T02:45:39;98720.88;;;11.10;92.56
69402;BME280;56589;51.992;5.924;2023-10-19T02:48:06;98722.53;;;11.12;93.09
69402;BME280;56589;51.992;5.924;2023-10-19T02:50:34;98721.38;;;11.14;92.92
69402;BME280;56589;51.992;5.924;2023-10-19T02:53:00;98712.41;;;11.17;92.92
69402;BME280;56589;51.992;5.924;2023-10-19T02:55:26;98720.94;;;11.19;92.75
69402;BME280;56589;51.992;5.924;2023-10-19T02:57:52;98717.16;;;11.21;93.20
69402;BME280;56589;51.992;5.924;2023-10-19T03:00:18;98720.16;;;11.26;93.14
69402;BME280;56589;51.992;5.924;2023-10-19T03:02:44;98718.06;;;11.30;93.05
69402;BME280;56589;51.992;5.924;2023-10-19T03:05:09;98717.91;;;11.31;92.78
69402;BME280;56589;51.992;5.924;2023-10-19T03:07:38;98729.06;;;11.33;92.69
69402;BME280;56589;51.992;5.924;2023-10-19T03:10:05;98719.25;;;11.35;92.69
69402;BME280;56589;51.992;5.924;2023-10-19T03:12:31;98713.84;;;11.37;92.89
69402;BME280;56589;51.992;5.924;2023-10-19T03:14:57;98719.09;;;11.37;92.94
69402;BME280;56589;51.992;5.924;2023-10-19T03:17:23;98715.31;;;11.40;92.87
69402;BME280;56589;51.992;5.924;2023-10-19T03:19:49;98717.00;;;11.41;93.00
69402;BME280;56589;51.992;5.924;2023-10-19T03:22:15;98710.75;;;11.42;92.57
69402;BME280;56589;51.992;5.924;2023-10-19T03:24:43;98713.22;;;11.43;92.87
69402;BME280;56589;51.992;5.924;2023-10-19T03:27:11;98721.78;;;11.45;92.75
69402;BME280;56589;51.992;5.924;2023-10-19T03:29:38;98710.31;;;11.46;92.77
69402;BME280;56589;51.992;5.924;2023-10-19T03:32:04;98718.84;;;11.48;92.67
69402;BME280;56589;51.992;5.924;2023-10-19T03:34:30;98711.78;;;11.49;92.62
69402;BME280;56589;51.992;5.924;2023-10-19T03:36:56;98701.13;;;11.50;92.92
69402;BME280;56589;51.992;5.924;2023-10-19T03:39:22;98695.84;;;11.50;92.94
69402;BME280;56589;51.992;5.924;2023-10-19T03:41:50;98697.38;;;11.53;93.08
69402;BME280;56589;51.992;5.924;2023-10-19T03:44:16;98680.78;;;11.52;93.21
69402;BME280;56589;51.992;5.924;2023-10-19T03:46:42;98682.25;;;11.55;93.40
69402;BME280;56589;51.992;5.924;2023-10-19T03:49:08;98674.75;;;11.60;93.75
69402;BME280;56589;51.992;5.924;2023-10-19T03:51:34;98686.25;;;11.67;93.72
69402;BME280;56589;51.992;5.924;2023-10-19T03:54:00;98680.38;;;11.73;93.26
69402;BME280;56589;51.992;5.924;2023-10-19T03:56:26;98677.41;;;11.76;93.49
69402;BME280;56589;51.992;5.924;2023-10-19T03:58:54;98679.91;;;11.78;93.28
69402;BME280;56589;51.992;5.924;2023-10-19T04:01:20;98687.47;;;11.81;92.97
69402;BME280;56589;51.992;5.924;2023-10-19T04:03:46;98680.28;;;11.83;93.09
69402;BME280;56589;51.992;5.924;2023-10-19T04:06:12;98675.00;;;11.83;92.79
69402;BME280;56589;51.992;5.924;2023-10-19T04:08:38;98677.47;;;11.84;92.77
69402;BME280;56589;51.992;5.924;2023-10-19T04:11:04;98671.53;;;11.82;92.79
69402;BME280;56589;51.992;5.924;2023-10-19T04:13:29;98665.94;;;11.77;92.72
69402;BME280;56589;51.992;5.924;2023-10-19T04:15:58;98665.78;;;11.79;92.78
69402;BME280;56589;51.992;5.924;2023-10-19T04:18:23;98665.13;;;11.77;93.07
69402;BME280;56589;51.992;5.924;2023-10-19T04:20:51;98664.28;;;11.76;92.59
69402;BME280;56589;51.992;5.924;2023-10-19T04:23:17;98665.13;;;11.77;93.17
69402;BME280;56589;51.992;5.924;2023-10-19T04:25:43;98671.22;;;11.77;92.96
69402;BME280;56589;51.992;5.924;2023-10-19T04:28:09;98670.88;;;11.80;93.26
69402;BME280;56589;51.992;5.924;2023-10-19T04:30:35;98668.59;;;11.85;93.78
69402;BME280;56589;51.992;5.924;2023-10-19T04:33:03;98670.59;;;11.91;94.03
69402;BME280;56589;51.992;5.924;2023-10-19T04:35:29;98672.44;;;11.99;94.01
69402;BME280;56589;51.992;5.924;2023-10-19T04:37:55;98669.00;;;12.07;94.31
69402;BME280;56589;51.992;5.924;2023-10-19T04:40:22;98669.34;;;12.12;93.98
69402;BME280;56589;51.992;5.924;2023-10-19T04:42:49;98666.53;;;12.13;93.55
69402;BME280;56589;51.992;5.924;2023-10-19T04:45:16;98666.72;;;12.12;93.69
69402;BME280;56589;51.992;5.924;2023-10-19T04:47:43;98663.25;;;12.11;93.25
69402;BME280;56589;51.992;5.924;2023-10-19T04:50:14;98665.72;;;12.13;93.52
69402;BME280;56589;51.992;5.924;2023-10-19T04:52:39;98674.31;;;12.15;93.98
69402;BME280;56589;51.992;5.924;2023-10-19T04:55:06;98680.38;;;12.15;93.63
69402;BME280;56589;51.992;5.924;2023-10-19T04:57:32;98679.56;;;12.15;93.58
69402;BME280;56589;51.992;5.924;2023-10-19T04:59:58;98674.13;;;12.16;93.41
69402;BME280;56589;51.992;5.924;2023-10-19T05:02:23;98674.94;;;12.17;93.27
69402;BME280;56589;51.992;5.924;2023-10-19T05:04:49;98671.50;;;12.16;93.70
69402;BME280;56589;51.992;5.924;2023-10-19T05:07:18;98666.72;;;12.12;93.50
69402;BME280;56589;51.992;5.924;2023-10-19T05:09:44;98671.31;;;12.10;93.47
69402;BME280;56589;51.992;5.924;2023-10-19T05:12:11;98681.50;;;12.05;92.96
69402;BME280;56589;51.992;5.924;2023-10-19T05:14:38;98684.59;;;12.00;93.07
69402;BME280;56589;51.992;5.924;2023-10-19T05:17:05;98680.66;;;11.96;92.74
69402;BME280;56589;51.992;5.924;2023-10-19T05:19:31;98684.56;;;11.92;92.64
69402;BME280;56589;51.992;5.924;2023-10-19T05:21:57;98678.97;;;11.87;92.93
69402;BME280;56589;51.992;5.924;2023-10-19T05:24:25;98689.81;;;11.84;92.84
69402;BME280;56589;51.992;5.924;2023-10-19T05:26:51;98685.66;;;11.81;93.08
69402;BME280;56589;51.992;5.924;2023-10-19T05:29:17;98685.19;;;11.78;92.83
69402;BME280;56589;51.992;5.924;2023-10-19T05:31:43;98686.97;;;11.77;93.28
69402;BME280;56589;51.992;5.924;2023-10-19T05:34:08;98689.75;;;11.76;92.75
69402;BME280;56589;51.992;5.924;2023-10-19T05:36:34;98692.53;;;11.74;93.24
69402;BME280;56589;51.992;5.924;2023-10-19T05:39:00;98701.25;;;11.75;93.31
69402;BME280;56589;51.992;5.924;2023-10-19T05:41:28;98697.97;;;11.73;92.96
69402;BME280;56589;51.992;5.924;2023-10-19T05:43:54;98703.22;;;11.73;93.26
69402;BME280;56589;51.992;5.924;2023-10-19T05:46:20;98702.22;;;11.74;93.47
69402;BME280;56589;51.992;5.924;2023-10-19T05:48:45;98705.38;;;11.77;93.61
69402;BME280;56589;51.992;5.924;2023-10-19T05:51:11;98713.75;;;11.81;93.29
69402;BME280;56589;51.992;5.924;2023-10-19T05:53:37;98708.34;;;11.82;93.28
69402;BME280;56589;51.992;5.924;2023-10-19T05:56:03;98702.78;;;11.85;93.83
69402;BME280;56589;51.992;5.924;2023-10-19T05:58:32;98713.13;;;11.87;93.39
69402;BME280;56589;51.992;5.924;2023-10-19T06:00:58;98698.69;;;11.91;93.74
69402;BME280;56589;51.992;5.924;2023-10-19T06:03:24;98703.63;;;11.94;94.01
69402;BME280;56589;51.992;5.924;2023-10-19T06:05:50;98707.59;;;11.98;93.57
69402;BME280;56589;51.992;5.924;2023-10-19T06:08:15;98716.00;;;12.02;93.77
69402;BME280;56589;51.992;5.924;2023-10-19T06:10:41;98719.13;;;12.05;93.72
69402;BME280;56589;51.992;5.924;2023-10-19T06:13:07;98717.03;;;12.09;93.77
69402;BME280;56589;51.992;5.924;2023-10-19T06:15:35;98721.13;;;12.11;93.73
69402;BME280;56589;51.992;5.924;2023-10-19T06:18:01;98720.84;;;12.14;94.15
69402;BME280;56589;51.992;5.924;2023-10-19T06:20:27;98726.41;;;12.19;93.71
69402;BME280;56589;51.992;5.924;2023-10-19T06:22:54;98727.28;;;12.20;93.65
69402;BME280;56589;51.992;5.924;2023-10-19T06:25:22;98725.50;;;12.21;93.65
69402;BME280;56589;51.992;5.924;2023-10-19T06:27:50;98732.06;;;12.25;94.15
69402;BME280;56589;51.992;5.924;2023-10-19T06:30:18;98725.00;;;12.25;94.23
69402;BME280;56589;51.992;5.924;2023-10-19T06:32:51;98724.69;;;12.28;94.04
69402;BME280;56589;51.992;5.924;2023-10-19T06:35:19;98727.16;;;12.30;94.09
69402;BME280;56589;51.992;5.924;2023-10-19T06:37:46;98739.84;;;12.34;94.39
69402;BME280;56589;51.992;5.924;2023-10-19T06:40:13;98737.84;;;12.36;93.85
69402;BME280;56589;51.992;5.924;2023-10-19T06:42:40;98736.72;;;12.39;94.23
69402;BME280;56589;51.992;5.924;2023-10-19T06:45:07;98729.50;;;12.41;93.80
69402;BME280;56589;51.992;5.924;2023-10-19T06:47:34;98741.66;;;12.42;94.06
69402;BME280;56589;51.992;5.924;2023-10-19T06:50:04;98751.19;;;12.43;94.18
69402;BME280;56589;51.992;5.924;2023-10-19T06:52:30;98732.63;;;12.44;94.24
69402;BME280;56589;51.992;5.924;2023-10-19T06:54:56;98730.81;;;12.45;93.71
69402;BME280;56589;51.992;5.924;2023-10-19T06:57:22;98735.94;;;12.47;93.83
69402;BME280;56589;51.992;5.924;2023-10-19T06:59:48;98733.13;;;12.48;93.84
69402;BME280;56589;51.992;5.924;2023-10-19T07:02:13;98733.13;;;12.48;94.05
69402;BME280;56589;51.992;5.924;2023-10-19T07:04:39;98733.94;;;12.49;93.63
69402;BME280;56589;51.992;5.924;2023-10-19T07:07:07;98739.03;;;12.50;93.53
69402;BME280;56589;51.992;5.924;2023-10-19T07:09:33;98750.25;;;12.52;93.91
69402;BME280;56589;51.992;5.924;2023-10-19T07:11:59;98753.38;;;12.56;93.96
69402;BME280;56589;51.992;5.924;2023-10-19T07:14:25;98754.06;;;12.58;94.09
69402;BME280;56589;51.992;5.924;2023-10-19T07:16:50;98750.09;;;12.62;94.34
69402;BME280;56589;51.992;5.924;2023-10-19T07:19:16;98755.72;;;12.67;94.35
69402;BME280;56589;51.992;5.924;2023-10-19T07:21:42;98760.50;;;12.71;94.60
69402;BME280;56589;51.992;5.924;2023-10-19T07:24:10;98763.66;;;12.75;94.50
69402;BME280;56589;51.992;5.924;2023-10-19T07:26:36;98764.13;;;12.79;94.33
69402;BME280;56589;51.992;5.924;2023-10-19T07:29:02;98768.91;;;12.83;94.71
69402;BME280;56589;51.992;5.924;2023-10-19T07:31:28;98768.44;;;12.88;94.30
69402;BME280;56589;51.992;5.924;2023-10-19T07:33:54;98763.47;;;12.93;94.31
69402;BME280;56589;51.992;5.924;2023-10-19T07:36:20;98764.00;;;12.96;94.38
69402;BME280;56589;51.992;5.924;2023-10-19T07:38:46;98769.59;;;13.02;94.56
69402;BME280;56589;51.992;5.924;2023-10-19T07:41:15;98767.44;;;13.05;94.79
69402;BME280;56589;51.992;5.924;2023-10-19T07:43:40;98770.59;;;13.09;94.35
69402;BME280;56589;51.992;5.924;2023-10-19T07:46:06;98766.66;;;13.13;94.63
69402;BME280;56589;51.992;5.924;2023-10-19T07:48:34;98771.56;;;13.16;94.39
69402;BME280;56589;51.992;5.924;2023-10-19T07:50:59;98771.56;;;13.16;94.39
69402;BME280;56589;51.992;5.924;2023-10-19T07:53:25;98767.00;;;13.18;94.24
69402;BME280;56589;51.992;5.924;2023-10-19T07:55:51;98774.56;;;13.21;94.72
69402;BME280;56589;51.992;5.924;2023-10-19T07:58:19;98780.31;;;13.24;94.76
69402;BME280;56589;51.992;5.924;2023-10-19T08:00:45;98777.53;;;13.26;94.71
69402;BME280;56589;51.992;5.924;2023-10-19T08:03:11;98782.44;;;13.29;94.73
69402;BME280;56589;51.992;5.924;2023-10-19T08:05:36;98775.69;;;13.35;94.91
69402;BME280;56589;51.992;5.924;2023-10-19T08:08:03;98785.75;;;13.39;94.32
69402;BME280;56589;51.992;5.924;2023-10-19T08:10:29;98772.09;;;13.44;95.02
69402;BME280;56589;51.992;5.924;2023-10-19T08:12:55;98769.94;;;13.47;94.88
69402;BME280;56589;51.992;5.924;2023-10-19T08:15:23;98769.63;;;13.50;94.61
69402;BME280;56589;51.992;5.924;2023-10-19T08:17:50;98777.88;;;13.56;94.36
69402;BME280;56589;51.992;5.924;2023-10-19T08:20:17;98763.69;;;13.57;94.45
69402;BME280;56589;51.992;5.924;2023-10-19T08:22:43;98772.75;;;13.62;94.85
69402;BME280;56589;51.992;5.924;2023-10-19T08:25:09;98765.66;;;13.63;94.81
69402;BME280;56589;51.992;5.924;2023-10-19T08:27:35;98773.22;;;13.66;94.29
69402;BME280;56589;51.992;5.924;2023-10-19T08:30:01;98774.72;;;13.68;94.14
69402;BME280;56589;51.992;5.924;2023-10-19T08:32:29;98768.28;;;13.71;94.35
69402;BME280;56589;51.992;5.924;2023-10-19T08:34:55;98771.41;;;13.74;94.39
69402;BME280;56589;51.992;5.924;2023-10-19T08:37:21;98769.25;;;13.78;94.31
69402;BME280;56589;51.992;5.924;2023-10-19T08:39:47;98768.75;;;13.83;94.61
69402;BME280;56589;51.992;5.924;2023-10-19T08:42:12;98772.72;;;13.87;94.29
69402;BME280;56589;51.992;5.924;2023-10-19T08:44:38;98770.53;;;13.90;94.25
69402;BME280;56589;51.992;5.924;2023-10-19T08:47:04;98764.94;;;13.93;94.25
69402;BME280;56589;51.992;5.924;2023-10-19T08:49:33;98754.84;;;13.97;94.56
69402;BME280;56589;51.992;5.924;2023-10-19T08:52:00;98761.63;;;13.99;94.50
69402;BME280;56589;51.992;5.924;2023-10-19T08:54:28;98753.34;;;14.02;94.52
69402;BME280;56589;51.992;5.924;2023-10-19T08:56:54;98757.31;;;14.07;94.72
69402;BME280;56589;51.992;5.924;2023-10-19T08:59:21;98750.53;;;14.12;95.03
69402;BME280;56589;51.992;5.924;2023-10-19T09:01:47;98741.75;;;14.20;95.03
69402;BME280;56589;51.992;5.924;2023-10-19T09:04:13;98742.69;;;14.27;94.79
69402;BME280;56589;51.992;5.924;2023-10-19T09:06:41;98749.13;;;14.32;94.86
69402;BME280;56589;51.992;5.924;2023-10-19T09:09:08;98753.38;;;14.42;94.54
69402;BME280;56589;51.992;5.924;2023-10-19T09:11:34;98750.03;;;14.48;94.69
69402;BME280;56589;51.992;5.924;2023-10-19T09:14:00;98736.97;;;14.54;94.75
69402;BME280;56589;51.992;5.924;2023-10-19T09:16:25;98732.63;;;14.62;94.74
69402;BME280;56589;51.992;5.924;2023-10-19T09:18:51;98734.78;;;14.66;94.72
69402;BME280;56589;51.992;5.924;2023-10-19T09:21:18;98738.69;;;14.70;94.76
69402;BME280;56589;51.992;5.924;2023-10-19T09:23:48;98727.81;;;14.73;94.19
69402;BME280;56589;51.992;5.924;2023-10-19T09:26:15;98737.19;;;14.76;94.05
69402;BME280;56589;51.992;5.924;2023-10-19T09:28:41;98745.59;;;14.79;93.77
69402;BME280;56589;51.992;5.924;2023-10-19T09:31:06;98744.59;;;14.80;93.92
69402;BME280;56589;51.992;5.924;2023-10-19T09:33:33;98746.22;;;14.81;94.15
69402;BME280;56589;51.992;5.924;2023-10-19T09:36:00;98747.06;;;14.82;93.50
69402;BME280;56589;51.992;5.924;2023-10-19T09:38:27;98743.41;;;14.83;93.86
69402;BME280;56589;51.992;5.924;2023-10-19T09:40:55;98745.34;;;14.89;94.36
69402;BME280;56589;51.992;5.924;2023-10-19T09:43:27;98747.13;;;14.97;94.33
69402;BME280;56589;51.992;5.924;2023-10-19T09:46:00;98752.97;;;15.07;94.39
69402;BME280;56589;51.992;5.924;2023-10-19T09:48:30;98744.63;;;15.18;94.21
69402;BME280;56589;51.992;5.924;2023-10-19T09:50:56;98744.56;;;15.26;94.42
69402;BME280;56589;51.992;5.924;2023-10-19T09:53:23;98742.88;;;15.33;94.09
69402;BME280;56589;51.992;5.924;2023-10-19T09:55:57;98740.69;;;15.37;93.96
69402;BME280;56589;51.992;5.924;2023-10-19T09:58:27;98739.31;;;15.41;93.71
69402;BME280;56589;51.992;5.924;2023-10-19T10:00:58;98731.31;;;15.49;94.03
69402;BME280;56589;51.992;5.924;2023-10-19T10:03:44;98725.78;;;15.59;94.34
69402;BME280;56589;51.992;5.924;2023-10-19T10:06:12;98724.50;;;15.70;93.87
69402;BME280;56589;51.992;5.924;2023-10-19T10:08:40;98723.53;;;15.85;93.77
69402;BME280;56589;51.992;5.924;2023-10-19T10:11:22;98728.38;;;15.97;93.65
69402;BME280;56589;51.992;5.924;2023-10-19T10:13:53;98727.91;;;16.08;93.64
69402;BME280;56589;51.992;5.924;2023-10-19T10:16:22;98729.25;;;16.18;92.71
69402;BME280;56589;51.992;5.924;2023-10-19T10:18:50;98728.16;;;16.28;92.37
69402;BME280;56589;51.992;5.924;2023-10-19T10:21:21;98729.66;;;16.37;92.23
69402;BME280;56589;51.992;5.924;2023-10-19T10:23:49;98733.13;;;16.52;92.47
69402;BME280;56589;51.992;5.924;2023-10-19T10:26:19;98732.84;;;16.62;91.80
69402;BME280;56589;51.992;5.924;2023-10-19T10:28:50;98735.34;;;16.70;91.42
69402;BME280;56589;51.992;5.924;2023-10-19T10:31:35;98735.25;;;16.78;91.58
69402;BME280;56589;51.992;5.924;2023-10-19T10:34:08;98722.22;;;16.77;90.70
69402;BME280;56589;51.992;5.924;2023-10-19T10:36:57;98734.00;;;16.74;90.63
69402;BME280;56589;51.992;5.924;2023-10-19T10:39:25;98731.63;;;16.64;89.87
69402;BME280;56589;51.992;5.924;2023-10-19T10:41:58;98746.09;;;16.62;90.85
69402;BME280;56589;51.992;5.924;2023-10-19T10:44:37;98735.91;;;16.65;90.54
69402;BME280;56589;51.992;5.924;2023-10-19T10:47:05;98726.13;;;16.66;89.88
69402;BME280;56589;51.992;5.924;2023-10-19T10:49:31;98719.66;;;16.68;90.11
69402;BME280;56589;51.992;5.924;2023-10-19T10:51:57;98720.28;;;16.70;89.50
69402;BME280;56589;51.992;5.924;2023-10-19T10:54:23;98711.34;;;16.71;89.78
69402;BME280;56589;51.992;5.924;2023-10-19T10:56:49;98703.03;;;16.75;89.27
69402;BME280;56589;51.992;5.924;2023-10-19T10:59:18;98701.63;;;16.79;89.28
69402;BME280;56589;51.992;5.924;2023-10-19T11:01:43;98683.72;;;16.81;88.92
69402;BME280;56589;51.992;5.924;2023-10-19T11:04:10;98676.75;;;16.80;88.06
69402;BME280;56589;51.992;5.924;2023-10-19T11:06:47;98679.81;;;16.77;88.51
69402;BME280;56589;51.992;5.924;2023-10-19T11:09:14;98676.03;;;16.71;87.78
69402;BME280;56589;51.992;5.924;2023-10-19T11:11:40;98678.63;;;16.64;87.27
69402;BME280;56589;51.992;5.924;2023-10-19T11:14:10;98682.31;;;16.63;87.39
69402;BME280;56589;51.992;5.924;2023-10-19T11:16:38;98679.25;;;16.66;87.74
69402;BME280;56589;51.992;5.924;2023-10-19T11:19:04;98683.19;;;16.70;87.59
69402;BME280;56589;51.992;5.924;2023-10-19T11:21:31;98692.44;;;16.75;87.55
69402;BME280;56589;51.992;5.924;2023-10-19T11:23:57;98692.28;;;16.83;87.72
69402;BME280;56589;51.992;5.924;2023-10-19T11:26:26;98684.22;;;16.91;87.76
69402;BME280;56589;51.992;5.924;2023-10-19T11:28:57;98686.75;;;16.99;88.18
69402;BME280;56589;51.992;5.924;2023-10-19T11:31:23;98685.25;;;17.18;88.34
69402;BME280;56589;51.992;5.924;2023-10-19T11:33:53;98680.72;;;17.40;87.72
69402;BME280;56589;51.992;5.924;2023-10-19T11:36:20;98680.38;;;17.49;86.22
69402;BME280;56589;51.992;5.924;2023-10-19T11:38:48;98670.38;;;17.51;86.23
69402;BME280;56589;51.992;5.924;2023-10-19T11:41:16;98678.34;;;17.51;85.57
69402;BME280;56589;51.992;5.924;2023-10-19T11:43:44;98679.56;;;17.49;85.41
69402;BME280;56589;51.992;5.924;2023-10-19T11:46:11;98671.97;;;17.46;84.45
69402;BME280;56589;51.992;5.924;2023-10-19T11:48:38;98675.03;;;17.43;84.50
69402;BME280;56589;51.992;5.924;2023-10-19T11:51:07;98666.06;;;17.44;84.88
69402;BME280;56589;51.992;5.924;2023-10-19T11:53:35;98679.81;;;17.54;85.79
69402;BME280;56589;51.992;5.924;2023-10-19T11:56:04;98673.41;;;17.76;85.67
69402;BME280;56589;51.992;5.924;2023-10-19T11:58:31;98658.19;;;17.92;85.13
69402;BME280;56589;51.992;5.924;2023-10-19T12:00:57;98668.03;;;17.98;84.60
69402;BME280;56589;51.992;5.924;2023-10-19T12:03:23;98659.41;;;17.96;84.15
69402;BME280;56589;51.992;5.924;2023-10-19T12:05:49;98655.91;;;17.89;83.65
69402;BME280;56589;51.992;5.924;2023-10-19T12:08:19;98664.53;;;17.91;84.49
69402;BME280;56589;51.992;5.924;2023-10-19T12:10:45;98660.22;;;17.96;83.99
69402;BME280;56589;51.992;5.924;2023-10-19T12:13:10;98655.94;;;17.95;83.06
69402;BME280;56589;51.992;5.924;2023-10-19T12:15:36;98653.69;;;17.86;82.10
69402;BME280;56589;51.992;5.924;2023-10-19T12:18:02;98648.47;;;17.71;81.75
69402;BME280;56589;51.992;5.924;2023-10-19T12:20:29;98654.09;;;17.55;82.49
69402;BME280;56589;51.992;5.924;2023-10-19T12:22:54;98652.59;;;17.45;82.95
69402;BME280;56589;51.992;5.924;2023-10-19T12:25:23;98657.50;;;17.42;83.50
69402;BME280;56589;51.992;5.924;2023-10-19T12:27:49;98653.56;;;17.38;82.80
69402;BME280;56589;51.992;5.924;2023-10-19T12:30:14;98650.44;;;17.27;83.20
69402;BME280;56589;51.992;5.924;2023-10-19T12:32:40;98641.41;;;17.22;82.96
69402;BME280;56589;51.992;5.924;2023-10-19T12:35:06;98633.00;;;17.12;82.98
69402;BME280;56589;51.992;5.924;2023-10-19T12:37:32;98638.88;;;17.07;83.63
69402;BME280;56589;51.992;5.924;2023-10-19T12:39:58;98636.44;;;17.06;83.50
69402;BME280;56589;51.992;5.924;2023-10-19T12:42:27;98639.44;;;17.03;83.70
69402;BME280;56589;51.992;5.924;2023-10-19T12:44:53;98638.44;;;17.04;83.94
69402;BME280;56589;51.992;5.924;2023-10-19T12:47:19;98643.72;;;17.04;83.63
69402;BME280;56589;51.992;5.924;2023-10-19T12:49:45;98645.41;;;17.05;84.25
69402;BME280;56589;51.992;5.924;2023-10-19T12:52:10;98633.56;;;17.07;83.84
69402;BME280;56589;51.992;5.924;2023-10-19T12:54:36;98626.44;;;17.08;83.72
69402;BME280;56589;51.992;5.924;2023-10-19T12:57:03;98626.84;;;17.05;83.51
69402;BME280;56589;51.992;5.924;2023-10-19T12:59:32;98624.56;;;17.02;83.43